Time;durP1;ratioP1;P1;durP2;ratioP2;P2;SDS_P1;SDS_P2;PMS_P1;PMS_P2;Temp;Humidity;BMP_temperature;BMP_pressure;BME280_temperature;BME280_humidity;BME280_pressure;Samples;Min_cycle;Max_cycle;Signal;HPM_P1;HPM_P2
2023/12/08 00:02:20;;;;;;;0.00;0.00;;;23.40;47.90;;;;;;5062602;28;20215;-48
2023/12/08 00:04:51;;;;;;;0.00;0.00;;;23.50;47.80;;;;;;5073599;28;20194;-49
2023/12/08 00:07:22;;;;;;;0.00;0.00;;;23.50;47.80;;;;;;5074701;28;20222;-52
2023/12/08 00:09:53;;;;;;;0.00;0.00;;;23.50;47.70;;;;;;5074547;28;20554;-45
2023/12/08 00:12:25;;;;;;;0.00;0.00;;;23.50;47.60;;;;;;5074578;28;20221;-48
2023/12/08 00:14:56;;;;;;;0.00;0.00;;;23.50;47.60;;;;;;5074465;28;20557;-47
2023/12/08 00:17:27;;;;;;;0.00;0.00;;;23.50;47.50;;;;;;5055156;28;20198;-49
2023/12/08 00:19:58;;;;;;;0.00;0.00;;;23.50;47.50;;;;;;5054330;28;20195;-48
2023/12/08 00:22:29;;;;;;;0.00;0.00;;;23.50;47.50;;;;;;5054447;28;20207;-53
2023/12/08 00:25:00;;;;;;;0.00;0.00;;;23.60;47.50;;;;;;5054273;28;20203;-44
2023/12/08 00:27:32;;;;;;;0.00;0.00;;;23.60;47.50;;;;;;5073865;22;20238;-51
2023/12/08 00:30:03;;;;;;;0.00;0.00;;;23.60;47.50;;;;;;5054113;28;20195;-47
2023/12/08 00:32:34;;;;;;;0.00;0.00;;;23.60;47.40;;;;;;5034434;28;20756;-51
2023/12/08 00:35:05;;;;;;;0.00;0.00;;;23.70;47.40;;;;;;5034853;28;20235;-51
2023/12/08 00:37:35;;;;;;;0.00;0.00;;;23.70;47.40;;;;;;5035153;28;20199;-52
2023/12/08 00:40:08;;;;;;;0.00;0.00;;;23.70;47.30;;;;;;5054700;28;20659;-54
2023/12/08 00:42:40;;;;;;;0.00;0.00;;;23.70;47.30;;;;;;5054083;28;20208;-52
2023/12/08 00:45:12;;;;;;;0.00;0.00;;;23.70;47.30;;;;;;5053553;28;20555;-50
2023/12/08 00:47:42;;;;;;;0.00;0.00;;;23.80;47.20;;;;;;5034489;28;20223;-52
2023/12/08 00:50:13;;;;;;;0.00;0.00;;;23.80;47.20;;;;;;5033954;28;20196;-52
2023/12/08 00:52:44;;;;;;;0.00;0.00;;;23.80;47.20;;;;;;5052191;28;20206;-55
2023/12/08 00:55:15;;;;;;;0.00;0.00;;;23.80;47.20;;;;;;5053501;28;20671;-52
2023/12/08 00:57:47;;;;;;;0.00;0.00;;;23.80;47.10;;;;;;5034353;28;20212;-52
2023/12/08 01:00:19;;;;;;;0.00;0.00;;;23.80;47.10;;;;;;5034448;28;20207;-52
2023/12/08 01:02:50;;;;;;;0.00;0.00;;;23.90;47.10;;;;;;5033464;28;20204;-53
2023/12/08 01:05:20;;;;;;;0.00;0.00;;;23.90;47.10;;;;;;5034089;28;20200;-54
2023/12/08 01:07:51;;;;;;;0.05;0.05;;;23.90;47.00;;;;;;5053168;28;20614;-49
2023/12/08 01:10:22;;;;;;;0.00;0.00;;;23.90;47.00;;;;;;5053690;28;20188;-53
2023/12/08 01:12:55;;;;;;;0.00;0.00;;;23.90;47.00;;;;;;5034079;28;20196;-54
2023/12/08 01:15:25;;;;;;;0.00;0.00;;;23.90;47.00;;;;;;5032878;28;20580;-51
2023/12/08 01:17:56;;;;;;;0.00;0.00;;;23.90;47.00;;;;;;5052821;28;20200;-52
2023/12/08 01:20:27;;;;;;;0.00;0.00;;;23.90;47.00;;;;;;5053257;28;20195;-54
2023/12/08 01:22:58;;;;;;;0.00;0.00;;;24.00;47.00;;;;;;5073028;28;20203;-51
2023/12/08 01:25:28;;;;;;;0.00;0.00;;;24.00;47.00;;;;;;5073171;28;20191;-53
2023/12/08 01:28:01;;;;;;;0.00;0.00;;;24.00;47.00;;;;;;5077571;22;20226;-45
2023/12/08 01:30:32;;;;;;;0.00;0.00;;;24.00;47.00;;;;;;5067537;28;20187;-46
2023/12/08 01:33:03;;;;;;;0.00;0.00;;;24.00;46.90;;;;;;5047464;28;20202;-45
2023/12/08 01:35:33;;;;;;;0.00;0.00;;;24.10;46.90;;;;;;5033293;28;20261;-46
2023/12/08 01:38:04;;;;;;;0.00;0.00;;;24.10;46.80;;;;;;5034057;28;20200;-51
2023/12/08 01:40:35;;;;;;;0.00;0.00;;;24.10;46.80;;;;;;5052053;28;20533;-49
2023/12/08 01:43:13;;;;;;;0.00;0.00;;;24.20;46.80;;;;;;5049735;28;20195;-45
2023/12/08 01:45:44;;;;;;;0.00;0.00;;;24.20;46.70;;;;;;5050031;28;20203;-47
2023/12/08 01:48:15;;;;;;;0.00;0.00;;;24.20;46.60;;;;;;5058627;28;20691;-47
2023/12/08 01:50:46;;;;;;;0.00;0.00;;;24.20;46.60;;;;;;5046203;28;20208;-47
2023/12/08 01:53:16;;;;;;;0.00;0.00;;;24.20;46.60;;;;;;5052872;28;20188;-47
2023/12/08 01:55:47;;;;;;;0.00;0.00;;;24.20;46.50;;;;;;5052404;28;20199;-49
2023/12/08 01:58:20;;;;;;;0.00;0.00;;;24.20;46.50;;;;;;5049629;28;20202;-46
2023/12/08 02:00:51;;;;;;;0.00;0.00;;;24.20;46.50;;;;;;5043593;28;20210;-47
2023/12/08 02:03:22;;;;;;;0.00;0.00;;;24.20;46.50;;;;;;5035371;28;20192;-49
2023/12/08 02:05:53;;;;;;;0.03;0.03;;;24.20;46.50;;;;;;5033274;28;20552;-47
2023/12/08 02:08:24;;;;;;;0.00;0.00;;;24.30;46.50;;;;;;5032787;28;20230;-47
2023/12/08 02:10:55;;;;;;;0.00;0.00;;;24.30;46.50;;;;;;5032529;28;20610;-48
2023/12/08 02:13:28;;;;;;;0.00;0.00;;;24.30;46.50;;;;;;5048897;28;20258;-48
2023/12/08 02:16:09;;;;;;;0.00;0.00;;;24.30;46.50;;;;;;5032503;28;20656;-48
2023/12/08 02:18:41;;;;;;;0.00;0.00;;;24.30;46.40;;;;;;5032715;28;20533;-47
2023/12/08 02:21:13;;;;;;;0.00;0.00;;;24.40;46.30;;;;;;5032415;28;20224;-47
2023/12/08 02:23:49;;;;;;;0.00;0.00;;;24.40;46.40;;;;;;5032732;28;20188;-47
2023/12/08 02:26:21;;;;;;;0.00;0.00;;;24.40;46.30;;;;;;5055751;22;20187;-52
2023/12/08 02:28:52;;;;;;;0.00;0.00;;;24.40;46.30;;;;;;5045091;28;20224;-53
2023/12/08 02:31:29;;;;;;;0.00;0.00;;;24.40;46.20;;;;;;5035997;28;20220;-52
2023/12/08 02:34:01;;;;;;;0.03;0.03;;;24.40;46.20;;;;;;5044354;28;20184;-51
2023/12/08 02:36:33;;;;;;;0.00;0.00;;;24.40;46.10;;;;;;5032588;28;20196;-50
2023/12/08 02:39:08;;;;;;;0.00;0.00;;;24.50;46.20;;;;;;5039318;28;20247;-53
2023/12/08 02:41:39;;;;;;;0.00;0.00;;;24.50;46.20;;;;;;5051529;28;20214;-52
2023/12/08 02:44:10;;;;;;;0.00;0.00;;;24.50;46.20;;;;;;5052162;28;20195;-49
2023/12/08 02:46:40;;;;;;;0.00;0.00;;;24.50;46.20;;;;;;5051273;28;20207;-50
2023/12/08 02:49:11;;;;;;;0.00;0.00;;;24.50;46.10;;;;;;5049662;28;20226;-51
2023/12/08 02:51:42;;;;;;;0.00;0.00;;;24.50;46.10;;;;;;5051674;28;20671;-54
2023/12/08 02:54:14;;;;;;;0.00;0.00;;;24.50;46.10;;;;;;5050876;28;20194;-51
2023/12/08 02:56:45;;;;;;;0.00;0.00;;;24.50;46.10;;;;;;5051399;28;20199;-50
2023/12/08 02:59:16;;;;;;;0.00;0.00;;;24.50;46.10;;;;;;5043200;28;20192;-52
2023/12/08 03:01:46;;;;;;;0.00;0.00;;;24.60;46.20;;;;;;5038714;28;20580;-49
2023/12/08 03:04:17;;;;;;;0.00;0.00;;;24.60;46.10;;;;;;5043384;28;20191;-51
2023/12/08 03:06:48;;;;;;;0.00;0.00;;;24.60;46.20;;;;;;5044153;28;20200;-54
2023/12/08 03:09:21;;;;;;;0.00;0.00;;;24.60;46.10;;;;;;5051118;28;20249;-50
2023/12/08 03:11:52;;;;;;;0.00;0.00;;;24.60;46.10;;;;;;5051469;28;20215;-52
2023/12/08 03:14:22;;;;;;;0.00;0.00;;;24.60;46.00;;;;;;5051682;28;20683;-49
2023/12/08 03:16:53;;;;;;;0.00;0.00;;;24.70;46.10;;;;;;5048332;28;20206;-50
2023/12/08 03:19:24;;;;;;;0.00;0.00;;;24.70;46.10;;;;;;5050407;28;20218;-52
2023/12/08 03:21:55;;;;;;;0.00;0.00;;;24.70;46.00;;;;;;5037095;28;20212;-52
2023/12/08 03:24:28;;;;;;;0.10;0.10;;;24.70;46.00;;;;;;5039030;28;20192;-49
2023/12/08 03:26:58;;;;;;;0.00;0.00;;;24.80;46.00;;;;;;5063154;23;20564;-47
2023/12/08 03:29:29;;;;;;;0.00;0.00;;;24.80;45.90;;;;;;5043127;28;20220;-45
2023/12/08 03:32:00;;;;;;;0.00;0.00;;;24.80;46.00;;;;;;5038986;28;20216;-50
2023/12/08 03:34:30;;;;;;;0.00;0.00;;;24.80;46.00;;;;;;5032660;28;20192;-48
2023/12/08 03:37:01;;;;;;;0.10;0.10;;;24.80;46.00;;;;;;5031566;28;20196;-46
2023/12/08 03:39:34;;;;;;;0.00;0.00;;;24.80;45.90;;;;;;5030166;28;20192;-46
2023/12/08 03:42:05;;;;;;;0.00;0.00;;;24.80;45.90;;;;;;5031723;28;20238;-45
2023/12/08 03:44:35;;;;;;;0.00;0.00;;;24.80;45.90;;;;;;5033145;28;20187;-45
2023/12/08 03:47:06;;;;;;;0.10;0.10;;;24.80;45.90;;;;;;5031769;28;20219;-45
2023/12/08 03:49:37;;;;;;;0.00;0.00;;;24.90;45.90;;;;;;5036450;28;20695;-46
2023/12/08 03:52:08;;;;;;;0.00;0.00;;;24.90;45.90;;;;;;5050635;28;20222;-45
2023/12/08 03:54:40;;;;;;;0.00;0.00;;;24.90;45.90;;;;;;5041214;28;20195;-45
2023/12/08 03:57:11;;;;;;;0.00;0.00;;;24.90;45.90;;;;;;5050701;28;20196;-44
2023/12/08 03:59:43;;;;;;;0.00;0.00;;;24.90;45.90;;;;;;5030963;28;20226;-46
2023/12/08 04:02:14;;;;;;;0.00;0.00;;;24.90;45.90;;;;;;5030983;28;20278;-45
2023/12/08 04:04:45;;;;;;;0.00;0.00;;;24.90;45.90;;;;;;5030783;28;20200;-46
2023/12/08 04:07:16;;;;;;;0.00;0.00;;;25.00;45.90;;;;;;5030747;28;20200;-47
2023/12/08 04:09:49;;;;;;;0.00;0.00;;;25.00;45.90;;;;;;5030299;28;20231;-48
2023/12/08 04:12:20;;;;;;;0.00;0.00;;;25.00;45.90;;;;;;5030065;28;20224;-46
2023/12/08 04:14:51;;;;;;;0.00;0.00;;;25.00;45.90;;;;;;5030281;28;20189;-48
2023/12/08 04:17:21;;;;;;;0.00;0.00;;;25.00;45.80;;;;;;5029926;28;20199;-48
2023/12/08 04:19:52;;;;;;;0.00;0.00;;;25.00;45.80;;;;;;5029885;28;20231;-48
2023/12/08 04:22:23;;;;;;;0.00;0.00;;;25.00;45.80;;;;;;5030469;28;20220;-46
2023/12/08 04:24:55;;;;;;;0.00;0.00;;;25.00;45.80;;;;;;5030180;28;20193;-46
2023/12/08 04:27:26;;;;;;;0.00;0.00;;;25.10;45.90;;;;;;5011528;28;20215;-47
2023/12/08 04:29:57;;;;;;;0.00;0.00;;;25.10;45.90;;;;;;5019460;28;20219;-47
2023/12/08 04:32:27;;;;;;;0.00;0.00;;;25.10;46.00;;;;;;5030000;28;20359;-46
2023/12/08 04:34:58;;;;;;;0.00;0.00;;;25.10;46.00;;;;;;5029930;28;20188;-48
2023/12/08 04:37:29;;;;;;;0.00;0.00;;;25.10;45.90;;;;;;5030450;28;20196;-47
2023/12/08 04:40:02;;;;;;;0.00;0.00;;;25.10;46.00;;;;;;5030257;28;20234;-46
2023/12/08 04:42:34;;;;;;;0.00;0.00;;;25.10;45.90;;;;;;5030692;28;20222;-46
2023/12/08 04:45:05;;;;;;;0.00;0.00;;;25.20;46.00;;;;;;5028747;28;20202;-49
2023/12/08 04:47:35;;;;;;;0.00;0.00;;;25.20;45.90;;;;;;5038414;28;20196;-46
2023/12/08 04:50:07;;;;;;;0.00;0.00;;;25.20;45.90;;;;;;5040975;28;20223;-45
2023/12/08 04:52:37;;;;;;;0.00;0.00;;;25.20;45.90;;;;;;5032647;28;20223;-45
2023/12/08 04:55:11;;;;;;;0.00;0.00;;;25.30;45.90;;;;;;5033456;28;20210;-48
2023/12/08 04:57:41;;;;;;;0.00;0.00;;;25.30;45.90;;;;;;5033563;28;20203;-48
2023/12/08 05:00:13;;;;;;;0.00;0.00;;;25.30;45.80;;;;;;5034178;28;20562;-45
2023/12/08 05:02:43;;;;;;;0.00;0.00;;;25.30;45.80;;;;;;5033639;28;20668;-48
2023/12/08 05:05:14;;;;;;;0.00;0.00;;;25.30;45.80;;;;;;5033431;28;20189;-45
2023/12/08 05:07:45;;;;;;;0.00;0.00;;;25.30;45.80;;;;;;5033559;28;20199;-46
2023/12/08 05:10:17;;;;;;;0.00;0.00;;;25.40;45.80;;;;;;5033379;28;20675;-45
2023/12/08 05:12:49;;;;;;;0.00;0.00;;;25.40;45.80;;;;;;5034039;28;20192;-46
2023/12/08 05:15:20;;;;;;;0.00;0.00;;;25.40;45.70;;;;;;5033312;28;20184;-47
2023/12/08 05:17:50;;;;;;;0.00;0.00;;;25.40;45.70;;;;;;5034168;28;20192;-46
2023/12/08 05:20:21;;;;;;;0.00;0.00;;;25.40;45.70;;;;;;5022747;28;20199;-45
2023/12/08 05:22:52;;;;;;;0.00;0.00;;;25.40;45.70;;;;;;5035829;28;20188;-46
2023/12/08 05:25:24;;;;;;;0.00;0.00;;;25.50;45.70;;;;;;5040229;28;20187;-48
2023/12/08 05:27:56;;;;;;;0.00;0.00;;;25.40;45.70;;;;;;5050899;28;20210;-46
2023/12/08 05:30:27;;;;;;;0.00;0.00;;;25.50;45.80;;;;;;5043710;28;20664;-48
2023/12/08 05:32:58;;;;;;;0.00;0.00;;;25.50;45.70;;;;;;5036481;28;20200;-47
2023/12/08 05:35:29;;;;;;;0.00;0.00;;;25.50;45.70;;;;;;5033487;28;20224;-48
2023/12/08 05:37:59;;;;;;;0.00;0.00;;;25.50;45.70;;;;;;5033019;28;20203;-48
2023/12/08 05:40:32;;;;;;;0.00;0.00;;;25.50;45.70;;;;;;5033768;28;20656;-48
2023/12/08 05:43:03;;;;;;;0.00;0.00;;;25.50;45.70;;;;;;5033251;28;20554;-48
2023/12/08 05:45:33;;;;;;;0.00;0.00;;;25.50;45.70;;;;;;5033664;28;20223;-49
2023/12/08 05:48:04;;;;;;;0.00;0.00;;;25.50;45.60;;;;;;5032585;28;20200;-50
2023/12/08 05:50:35;;;;;;;0.00;0.00;;;25.60;45.70;;;;;;5034216;28;20188;-50
2023/12/08 05:53:06;;;;;;;0.00;0.00;;;25.60;45.60;;;;;;5032713;28;20196;-50
2023/12/08 05:55:38;;;;;;;0.00;0.00;;;25.60;45.60;;;;;;5032672;28;20195;-50
2023/12/08 05:58:09;;;;;;;0.00;0.00;;;25.60;46.20;;;;;;5032013;28;20204;-48
2023/12/08 06:00:41;;;;;;;0.00;0.00;;;25.60;45.50;;;;;;5033099;28;20212;-46
2023/12/08 06:03:11;;;;;;;0.00;0.00;;;25.60;45.40;;;;;;5032588;28;20203;-47
2023/12/08 06:05:42;;;;;;;0.00;0.00;;;25.60;45.40;;;;;;5031849;28;20679;-46
2023/12/08 06:08:13;;;;;;;0.00;0.00;;;25.60;45.40;;;;;;5027209;28;20199;-45
2023/12/08 06:10:45;;;;;;;0.00;0.00;;;25.60;45.40;;;;;;5021284;28;20243;-49
2023/12/08 06:13:16;;;;;;;0.00;0.00;;;25.60;45.40;;;;;;5032462;28;20192;-45
2023/12/08 06:15:47;;;;;;;0.00;0.00;;;25.60;45.30;;;;;;5032063;28;20188;-45
2023/12/08 06:18:18;;;;;;;0.00;0.00;;;25.60;45.30;;;;;;5033077;28;20246;-46
2023/12/08 06:20:49;;;;;;;0.00;0.00;;;25.60;45.40;;;;;;5031974;28;20208;-45
2023/12/08 06:23:19;;;;;;;0.00;0.00;;;25.60;45.40;;;;;;5031631;28;20200;-46
2023/12/08 06:25:52;;;;;;;0.00;0.00;;;25.60;45.40;;;;;;5033048;28;20219;-46
2023/12/08 06:28:23;;;;;;;0.00;0.00;;;25.60;45.40;;;;;;5032804;28;20222;-45
2023/12/08 06:30:53;;;;;;;0.00;0.00;;;25.60;45.40;;;;;;5050921;28;20298;-47
2023/12/08 06:33:24;;;;;;;0.00;0.00;;;25.60;45.40;;;;;;5012922;28;20200;-49
2023/12/08 06:35:55;;;;;;;0.00;0.00;;;25.60;45.30;;;;;;5012958;28;20196;-49
2023/12/08 06:38:25;;;;;;;0.00;0.00;;;25.70;45.40;;;;;;5012414;28;20197;-46
2023/12/08 06:40:58;;;;;;;0.00;0.00;;;25.70;45.60;;;;;;5012555;28;20702;-47
2023/12/08 06:43:29;;;;;;;0.00;0.00;;;25.60;45.10;;;;;;5012009;28;20207;-46
2023/12/08 06:46:01;;;;;;;0.00;0.00;;;25.60;45.10;;;;;;5012061;28;20197;-45
2023/12/08 06:48:32;;;;;;;0.00;0.00;;;25.60;45.10;;;;;;5012704;28;20212;-47
2023/12/08 06:51:03;;;;;;;0.00;0.00;;;25.60;45.10;;;;;;5012670;28;20228;-48
2023/12/08 06:53:34;;;;;;;0.00;0.00;;;25.60;45.10;;;;;;5011544;28;20196;-47
2023/12/08 06:56:08;;;;;;;0.00;0.00;;;25.60;45.00;;;;;;5011965;28;20283;-46
2023/12/08 06:58:39;;;;;;;0.00;0.00;;;25.60;45.00;;;;;;5012067;28;20196;-45
2023/12/08 07:01:10;;;;;;;0.00;0.00;;;25.60;45.10;;;;;;5013314;28;20224;-47
2023/12/08 07:03:40;;;;;;;0.00;0.00;;;25.60;45.10;;;;;;5032291;28;20196;-47
2023/12/08 07:06:11;;;;;;;0.00;0.00;;;25.60;45.00;;;;;;5032638;28;20666;-47
2023/12/08 07:08:42;;;;;;;0.00;0.00;;;25.60;45.10;;;;;;5031617;28;20584;-48
2023/12/08 07:11:15;;;;;;;0.00;0.00;;;25.60;45.10;;;;;;5032159;28;20224;-47
2023/12/08 07:13:45;;;;;;;0.00;0.00;;;25.60;45.10;;;;;;5030857;28;20200;-48
2023/12/08 07:16:16;;;;;;;0.00;0.00;;;25.60;45.10;;;;;;5034044;28;20640;-47
2023/12/08 07:18:47;;;;;;;0.00;0.00;;;25.60;45.10;;;;;;5031891;28;20192;-46
2023/12/08 07:21:18;;;;;;;0.00;0.00;;;25.60;45.10;;;;;;5031339;28;20258;-46
2023/12/08 07:23:49;;;;;;;0.00;0.00;;;25.60;45.10;;;;;;5031458;28;20193;-47
2023/12/08 07:26:21;;;;;;;0.00;0.00;;;25.60;45.00;;;;;;5032223;28;20200;-45
2023/12/08 07:28:52;;;;;;;0.00;0.00;;;25.60;45.00;;;;;;5034979;28;20211;-46
2023/12/08 07:31:23;;;;;;;0.00;0.00;;;25.60;45.00;;;;;;5033858;28;20230;-46
2023/12/08 07:33:53;;;;;;;0.00;0.00;;;25.60;45.00;;;;;;5031332;28;20202;-45
2023/12/08 07:36:24;;;;;;;0.00;0.00;;;25.60;45.00;;;;;;5031033;28;20679;-46
2023/12/08 07:38:55;;;;;;;0.00;0.00;;;25.60;45.00;;;;;;5030973;28;20192;-48
2023/12/08 07:41:27;;;;;;;0.00;0.00;;;25.60;45.00;;;;;;5031309;28;20220;-48
2023/12/08 07:43:59;;;;;;;0.00;0.00;;;25.60;45.00;;;;;;5032045;28;20200;-46
2023/12/08 07:46:30;;;;;;;0.00;0.00;;;25.50;44.90;;;;;;5033108;28;20647;-45
2023/12/08 07:49:00;;;;;;;0.00;0.00;;;25.50;44.90;;;;;;5031610;28;20222;-48
2023/12/08 07:51:32;;;;;;;0.00;0.00;;;25.50;45.00;;;;;;5030751;28;20317;-48
2023/12/08 07:54:03;;;;;;;0.00;0.00;;;25.50;45.00;;;;;;5030952;28;20192;-46
2023/12/08 07:56:35;;;;;;;0.00;0.00;;;25.50;45.00;;;;;;5031480;28;20279;-49
2023/12/08 07:59:07;;;;;;;0.00;0.00;;;25.50;45.00;;;;;;5031385;28;20207;-47
2023/12/08 08:01:37;;;;;;;0.00;0.00;;;25.40;44.90;;;;;;5031526;28;20247;-48
2023/12/08 08:04:08;;;;;;;0.00;0.00;;;25.40;44.90;;;;;;5031069;28;20563;-45
2023/12/08 08:06:39;;;;;;;0.00;0.00;;;25.40;44.90;;;;;;5031556;28;20196;-45
2023/12/08 08:09:10;;;;;;;0.00;0.00;;;25.30;44.90;;;;;;5030695;28;20255;-45
2023/12/08 08:11:42;;;;;;;0.00;0.00;;;25.30;45.00;;;;;;5030743;28;20358;-46
2023/12/08 08:14:13;;;;;;;0.00;0.00;;;25.20;45.00;;;;;;5031109;28;20436;-45
2023/12/08 08:16:44;;;;;;;0.00;0.00;;;25.20;45.00;;;;;;5030595;28;20195;-48
2023/12/08 08:19:14;;;;;;;0.00;0.00;;;25.20;45.10;;;;;;5042539;28;20199;-47
2023/12/08 08:21:46;;;;;;;0.00;0.00;;;25.20;45.10;;;;;;5030048;28;20562;-45
2023/12/08 08:24:16;;;;;;;0.00;0.00;;;25.20;45.10;;;;;;5030290;28;20188;-45
2023/12/08 08:26:50;;;;;;;0.00;0.00;;;25.20;45.20;;;;;;5033101;28;20199;-46
2023/12/08 08:29:20;;;;;;;0.00;0.00;;;25.10;45.10;;;;;;5034979;28;20215;-47
2023/12/08 08:31:52;;;;;;;0.00;0.00;;;25.10;45.10;;;;;;5034125;28;20457;-45
2023/12/08 08:34:23;;;;;;;0.10;0.10;;;25.10;45.10;;;;;;5033796;28;20638;-46
2023/12/08 08:36:54;;;;;;;0.00;0.00;;;25.10;45.10;;;;;;5032911;28;20207;-45
2023/12/08 08:39:24;;;;;;;0.00;0.00;;;25.00;45.10;;;;;;5034158;28;20805;-46
2023/12/08 08:41:57;;;;;;;0.00;0.00;;;25.10;45.10;;;;;;5034059;28;20593;-45
2023/12/08 08:44:29;;;;;;;0.00;0.00;;;25.00;45.10;;;;;;5033923;28;20200;-45
2023/12/08 08:46:59;;;;;;;0.00;0.00;;;25.00;45.10;;;;;;5034407;28;20206;-47
2023/12/08 08:49:30;;;;;;;0.00;0.00;;;25.00;45.10;;;;;;5033238;28;20220;-45
2023/12/08 08:52:01;;;;;;;0.00;0.00;;;24.90;45.10;;;;;;5033492;28;20223;-44
2023/12/08 08:54:31;;;;;;;0.00;0.00;;;24.90;45.10;;;;;;5034017;28;20192;-45
2023/12/08 08:57:05;;;;;;;0.00;0.00;;;24.90;45.10;;;;;;5033285;28;20199;-47
2023/12/08 08:59:35;;;;;;;0.00;0.00;;;24.90;45.20;;;;;;5034055;28;20266;-46
2023/12/08 09:02:06;;;;;;;0.00;0.00;;;24.90;45.20;;;;;;5033892;28;20243;-48
2023/12/08 09:04:37;;;;;;;0.00;0.00;;;24.90;45.20;;;;;;5034348;28;20192;-47
2023/12/08 09:07:08;;;;;;;0.00;0.00;;;24.80;45.10;;;;;;5032554;28;20200;-45
2023/12/08 09:09:39;;;;;;;0.00;0.00;;;24.80;45.10;;;;;;5033890;28;20680;-44
2023/12/08 09:12:12;;;;;;;0.00;0.00;;;24.80;45.10;;;;;;5029267;28;20220;-45
2023/12/08 09:14:43;;;;;;;0.00;0.00;;;24.80;45.20;;;;;;5033030;28;20215;-45
2023/12/08 09:17:14;;;;;;;0.00;0.00;;;24.80;45.10;;;;;;5031981;28;20192;-44
2023/12/08 09:19:44;;;;;;;0.00;0.00;;;24.70;45.10;;;;;;5032860;28;20203;-44
2023/12/08 09:22:15;;;;;;;0.00;0.00;;;24.70;45.00;;;;;;5045919;28;20427;-45
2023/12/08 09:24:46;;;;;;;0.00;0.00;;;24.70;45.00;;;;;;5035458;28;20621;-45
2023/12/08 09:27:18;;;;;;;0.00;0.00;;;24.70;45.00;;;;;;5032981;28;20211;-45
2023/12/08 09:29:49;;;;;;;0.00;0.00;;;24.60;45.00;;;;;;5044294;28;20215;-47
2023/12/08 09:32:20;;;;;;;0.00;0.00;;;24.60;45.00;;;;;;5037359;28;20230;-46
2023/12/08 09:34:50;;;;;;;0.00;0.00;;;24.60;45.00;;;;;;5033315;28;20560;-48
2023/12/08 09:37:21;;;;;;;0.00;0.00;;;24.60;44.90;;;;;;5039058;28;20188;-47
2023/12/08 09:39:52;;;;;;;0.00;0.00;;;24.50;44.90;;;;;;5052626;28;20648;-49
2023/12/08 09:42:32;;;;;;;0.00;0.00;;;24.50;45.00;;;;;;5036575;28;20298;-48
2023/12/08 09:45:09;;;;;;;0.00;0.00;;;24.50;45.00;;;;;;5032419;28;20695;-48
2023/12/08 09:47:42;;;;;;;0.00;0.00;;;24.50;45.10;;;;;;5033103;28;20242;-48
2023/12/08 09:50:14;;;;;;;0.00;0.00;;;24.50;45.10;;;;;;5032260;28;20631;-48
2023/12/08 09:52:45;;;;;;;0.00;0.00;;;24.40;45.00;;;;;;5034749;28;20238;-48
2023/12/08 09:55:16;;;;;;;0.00;0.00;;;24.40;45.00;;;;;;5033721;28;20652;-48
2023/12/08 09:57:50;;;;;;;0.00;0.00;;;24.40;45.10;;;;;;5041431;28;20203;-46
2023/12/08 10:00:22;;;;;;;0.00;0.00;;;24.30;45.00;;;;;;5047270;28;20637;-45
2023/12/08 10:02:53;;;;;;;0.00;0.00;;;24.30;45.00;;;;;;5032355;28;20200;-45
2023/12/08 10:05:24;;;;;;;0.00;0.00;;;24.30;45.00;;;;;;5032466;28;20227;-48
2023/12/08 10:07:57;;;;;;;0.00;0.00;;;24.30;45.00;;;;;;5032468;28;20203;-44
2023/12/08 10:10:27;;;;;;;0.00;0.00;;;24.30;45.00;;;;;;5033237;28;20227;-48
2023/12/08 10:13:00;;;;;;;0.00;0.00;;;24.30;45.00;;;;;;5032862;28;20188;-47
2023/12/08 10:15:31;;;;;;;0.00;0.00;;;24.20;44.90;;;;;;5033489;28;20222;-46
2023/12/08 10:18:02;;;;;;;0.00;0.00;;;24.20;44.90;;;;;;5032342;28;20208;-45
2023/12/08 10:20:32;;;;;;;0.00;0.00;;;24.20;44.90;;;;;;5032722;28;20258;-46
2023/12/08 10:23:03;;;;;;;0.00;0.00;;;24.20;44.90;;;;;;5032707;28;20203;-46
2023/12/08 10:25:34;;;;;;;0.00;0.00;;;24.10;44.90;;;;;;5032433;28;20200;-48
2023/12/08 10:28:07;;;;;;;0.00;0.00;;;24.10;44.90;;;;;;5033188;28;20566;-50
2023/12/08 10:30:38;;;;;;;0.00;0.00;;;24.00;44.90;;;;;;5031487;28;20223;-50
2023/12/08 10:33:09;;;;;;;0.00;0.00;;;24.00;44.90;;;;;;5032321;28;20564;-50
2023/12/08 10:35:42;;;;;;;0.00;0.00;;;24.00;44.90;;;;;;5031947;28;20199;-47
2023/12/08 10:38:13;;;;;;;0.00;0.00;;;24.00;45.00;;;;;;5033076;28;20279;-48
2023/12/08 10:40:49;;;;;;;0.00;0.00;;;23.90;44.90;;;;;;5031982;28;20226;-48
2023/12/08 10:43:25;;;;;;;0.00;0.00;;;23.90;44.90;;;;;;5022801;28;20531;-50
2023/12/08 10:45:56;;;;;;;0.00;0.00;;;23.90;44.90;;;;;;5032732;28;20278;-48
2023/12/08 10:48:27;;;;;;;0.00;0.00;;;23.80;44.90;;;;;;5030966;28;20288;-51
2023/12/08 10:50:58;;;;;;;0.00;0.00;;;23.80;44.90;;;;;;5032287;28;20243;-51
2023/12/08 10:53:31;;;;;;;0.03;0.03;;;23.80;44.90;;;;;;5032304;28;20253;-45
2023/12/08 10:56:06;;;;;;;0.00;0.00;;;23.80;44.90;;;;;;5031547;28;20202;-46
2023/12/08 10:58:42;;;;;;;0.10;0.10;;;23.80;44.90;;;;;;5031875;28;20660;-45
2023/12/08 11:01:16;;;;;;;0.00;0.00;;;23.70;44.90;;;;;;5031741;28;20212;-49
2023/12/08 11:03:51;;;;;;;0.00;0.00;;;23.70;44.90;;;;;;5031903;28;20203;-47
2023/12/08 11:06:30;;;;;;;0.00;0.00;;;23.70;44.90;;;;;;5030761;28;20195;-45
2023/12/08 11:09:05;;;;;;;0.00;0.00;;;23.70;45.00;;;;;;5031632;28;20655;-45
2023/12/08 11:11:38;;;;;;;0.00;0.00;;;23.60;44.90;;;;;;5030537;28;20255;-45
2023/12/08 11:14:20;;;;;;;0.00;0.00;;;23.60;44.90;;;;;;5031708;28;20660;-45
2023/12/08 11:16:57;;;;;;;0.00;0.00;;;23.60;45.00;;;;;;5031296;28;20196;-47
2023/12/08 11:19:28;;;;;;;0.10;0.10;;;23.50;44.90;;;;;;5030873;28;20196;-49
2023/12/08 11:21:59;;;;;;;0.00;0.00;;;23.50;45.00;;;;;;5034077;28;20208;-53
2023/12/08 11:24:31;;;;;;;0.00;0.00;;;23.50;45.00;;;;;;5050497;28;20195;-52
2023/12/08 11:27:08;;;;;;;0.00;0.00;;;23.40;45.00;;;;;;5044640;28;20188;-49
2023/12/08 11:29:49;;;;;;;0.03;0.03;;;23.40;45.00;;;;;;5051262;28;20253;-49
2023/12/08 11:32:26;;;;;;;0.00;0.00;;;23.40;45.00;;;;;;5033223;28;20211;-44
2023/12/08 11:35:00;;;;;;;0.10;0.10;;;23.40;45.00;;;;;;5030647;28;20200;-46
2023/12/08 11:37:32;;;;;;;0.00;0.00;;;23.30;45.00;;;;;;5030650;28;20191;-51
2023/12/08 11:40:11;;;;;;;0.00;0.00;;;23.30;45.00;;;;;;5031460;28;20595;-50
2023/12/08 11:42:42;;;;;;;0.00;0.00;;;23.30;45.00;;;;;;5030659;28;20215;-51
2023/12/08 11:45:15;;;;;;;0.00;0.00;;;23.30;45.00;;;;;;5033598;28;20196;-50
2023/12/08 11:47:46;;;;;;;0.00;0.00;;;23.30;45.10;;;;;;5035283;28;20206;-47
2023/12/08 11:50:17;;;;;;;0.00;0.00;;;23.20;45.20;;;;;;5049550;28;20615;-47
2023/12/08 11:52:47;;;;;;;0.00;0.00;;;23.20;45.10;;;;;;5011390;28;20680;-45
2023/12/08 11:55:20;;;;;;;0.00;0.00;;;23.20;45.10;;;;;;5011110;28;20197;-47
2023/12/08 11:58:07;;;;;;;0.00;0.00;;;23.20;45.10;;;;;;5011368;28;20193;-46
2023/12/08 12:00:41;;;;;;;0.10;0.10;;;23.10;45.10;;;;;;5013605;28;20200;-43
2023/12/08 12:03:12;;;;;;;0.00;0.00;;;23.10;45.10;;;;;;5030049;28;20235;-46
2023/12/08 12:05:43;;;;;;;0.00;0.00;;;23.10;45.10;;;;;;5030549;28;20196;-46
2023/12/08 12:08:14;;;;;;;0.00;0.00;;;23.00;45.10;;;;;;5030475;28;20192;-46
2023/12/08 12:10:48;;;;;;;0.00;0.00;;;23.00;45.10;;;;;;5030738;28;20227;-45
2023/12/08 12:13:25;;;;;;;0.00;0.00;;;23.00;45.10;;;;;;5030669;28;20227;-46
2023/12/08 12:15:58;;;;;;;0.05;0.05;;;23.00;45.20;;;;;;5030689;28;20195;-47
2023/12/08 12:18:30;;;;;;;0.00;0.00;;;22.90;45.20;;;;;;5033383;28;20203;-49
2023/12/08 12:21:00;;;;;;;0.00;0.00;;;22.90;45.20;;;;;;5038727;28;20219;-47
2023/12/08 12:23:31;;;;;;;0.10;0.10;;;22.90;45.20;;;;;;5039928;28;20200;-48
2023/12/08 12:26:03;;;;;;;0.00;0.00;;;22.90;45.20;;;;;;5041457;28;20188;-49
2023/12/08 12:28:33;;;;;;;0.00;0.00;;;22.90;45.30;;;;;;5045568;28;20573;-48
2023/12/08 12:31:06;;;;;;;0.00;0.00;;;22.90;45.20;;;;;;5038832;28;20224;-49
2023/12/08 12:33:39;;;;;;;0.00;0.00;;;22.80;45.20;;;;;;5041480;28;20192;-46
2023/12/08 12:36:10;;;;;;;0.00;0.00;;;22.80;45.20;;;;;;5038082;28;20188;-47
2023/12/08 12:38:42;;;;;;;0.00;0.00;;;22.80;45.20;;;;;;5039511;28;20188;-47
2023/12/08 12:41:26;;;;;;;0.00;0.00;;;22.80;45.30;;;;;;5040288;28;20208;-48
2023/12/08 12:44:01;;;;;;;0.10;0.10;;;22.70;45.30;;;;;;5039876;28;20188;-48
2023/12/08 12:46:33;;;;;;;0.00;0.00;;;22.70;45.20;;;;;;5038701;28;20196;-47
2023/12/08 12:49:04;;;;;;;0.00;0.00;;;22.70;45.30;;;;;;5039673;28;20196;-46
2023/12/08 12:51:36;;;;;;;0.00;0.00;;;22.70;45.30;;;;;;5039802;28;20219;-46
2023/12/08 12:54:07;;;;;;;0.00;0.00;;;22.70;45.30;;;;;;5037319;28;20192;-46
2023/12/08 12:56:50;;;;;;;0.00;0.00;;;22.70;45.30;;;;;;5039220;28;20199;-47
2023/12/08 12:59:20;;;;;;;0.00;0.00;;;22.60;45.30;;;;;;5040648;28;20722;-44
2023/12/08 13:01:53;;;;;;;0.00;0.00;;;22.60;45.30;;;;;;5038144;28;20216;-50
2023/12/08 13:04:31;;;;;;;0.00;0.00;;;22.50;45.30;;;;;;5041273;28;20206;-48
2023/12/08 13:07:14;;;;;;;0.00;0.00;;;22.60;45.40;;;;;;5041221;28;20187;-45
2023/12/08 13:09:44;;;;;;;0.00;0.00;;;22.50;45.30;;;;;;5041429;28;20192;-47
2023/12/08 13:12:15;;;;;;;0.00;0.00;;;22.50;45.40;;;;;;5034552;28;20220;-47